Time;durP1;ratioP1;P1;durP2;ratioP2;P2;SDS_P1;SDS_P2;PMS_P1;PMS_P2;Temp;Humidity;BMP_temperature;BMP_pressure;BME280_temperature;BME280_humidity;BME280_pressure;Samples;Min_cycle;Max_cycle;Signal;HPM_P1;HPM_P2
2023/09/15 00:00:23;;;;;;;11.70;4.78;;;13.00;99.90;;;;;;5078350;28;20036;-79
2023/09/15 00:02:51;;;;;;;8.82;4.10;;;13.00;99.90;;;;;;5087816;28;20049;-80
2023/09/15 00:05:17;;;;;;;12.13;4.20;;;13.00;99.90;;;;;;5080002;28;20093;-80
2023/09/15 00:07:42;;;;;;;9.35;3.97;;;12.90;99.90;;;;;;5083775;28;20048;-80
2023/09/15 00:10:11;;;;;;;7.03;3.92;;;12.90;99.90;;;;;;5058112;28;20045;-80
2023/09/15 00:12:38;;;;;;;10.93;3.78;;;12.90;99.90;;;;;;5057154;28;20117;-80
2023/09/15 00:15:07;;;;;;;10.23;3.65;;;12.80;99.90;;;;;;5067446;28;20403;-79
2023/09/15 00:17:35;;;;;;;10.15;3.75;;;12.80;99.90;;;;;;5068158;28;20052;-80
2023/09/15 00:20:01;;;;;;;8.02;3.53;;;12.80;99.90;;;;;;5074437;28;20048;-79
2023/09/15 00:22:27;;;;;;;11.18;3.70;;;12.80;99.90;;;;;;5060289;28;20045;-80
2023/09/15 00:24:55;;;;;;;6.35;3.88;;;12.80;99.90;;;;;;5082223;28;20040;-81
2023/09/15 00:27:21;;;;;;;7.68;3.67;;;12.80;99.90;;;;;;5083632;28;20048;-80
2023/09/15 00:29:46;;;;;;;9.93;3.78;;;12.70;99.90;;;;;;5072264;28;20037;-81
2023/09/15 00:32:12;;;;;;;7.45;3.75;;;12.70;99.90;;;;;;5078444;28;20123;-81
2023/09/15 00:34:38;;;;;;;11.13;3.88;;;12.70;99.90;;;;;;5080753;28;20045;-80
2023/09/15 00:37:04;;;;;;;15.63;7.47;;;12.70;99.90;;;;;;5107186;28;20033;-80
2023/09/15 00:39:29;;;;;;;9.43;5.10;;;12.70;99.90;;;;;;5080499;28;20045;-79
2023/09/15 00:41:55;;;;;;;12.90;6.15;;;12.70;99.90;;;;;;5086282;28;20036;-80
2023/09/15 00:44:21;;;;;;;8.57;5.00;;;12.60;99.90;;;;;;5084927;28;20075;-80
2023/09/15 00:46:47;;;;;;;7.07;4.10;;;12.60;99.90;;;;;;5062442;28;20045;-81
2023/09/15 00:49:13;;;;;;;9.23;3.53;;;12.60;99.90;;;;;;5079304;28;20067;-81
2023/09/15 00:51:39;;;;;;;9.18;3.65;;;12.60;99.90;;;;;;5080723;28;20044;-80
2023/09/15 00:54:07;;;;;;;10.18;3.30;;;12.60;99.90;;;;;;5074335;28;20076;-82
2023/09/15 00:56:34;;;;;;;11.38;4.05;;;12.60;99.90;;;;;;5079025;28;20045;-80
2023/09/15 00:59:01;;;;;;;12.82;4.20;;;12.60;99.90;;;;;;5081150;28;20048;-81
2023/09/15 01:01:27;;;;;;;7.25;3.35;;;12.50;99.90;;;;;;5070877;28;20064;-81
2023/09/15 01:03:53;;;;;;;8.63;3.45;;;12.60;99.90;;;;;;5063430;28;20120;-81
2023/09/15 01:06:19;;;;;;;7.82;3.10;;;12.50;99.90;;;;;;5078373;28;20040;-82
2023/09/15 01:08:47;;;;;;;9.13;3.33;;;12.50;99.90;;;;;;5079433;28;20045;-79
2023/09/15 01:11:13;;;;;;;6.05;3.28;;;12.50;99.90;;;;;;5079987;28;20044;-81
2023/09/15 01:13:39;;;;;;;6.15;3.15;;;12.50;99.90;;;;;;5069652;28;20060;-80
2023/09/15 01:16:30;;;;;;;10.00;3.35;;;12.40;99.90;;;;;;5115292;27;20036;-80
2023/09/15 01:19:08;;;;;;;11.98;3.22;;;12.40;99.90;;;;;;5074478;28;20056;-80
2023/09/15 01:21:52;;;;;;;8.80;3.33;;;12.40;99.90;;;;;;5060390;28;20041;-81
2023/09/15 01:24:53;;;;;;;11.02;3.75;;;12.40;99.90;;;;;;5064015;28;20106;-80
2023/09/15 01:27:27;;;;;;;8.25;3.13;;;12.40;99.90;;;;;;5063100;28;20043;-80
2023/09/15 01:29:59;;;;;;;7.25;3.72;;;12.40;99.90;;;;;;5073808;28;20047;-80
2023/09/15 01:32:25;;;;;;;7.25;3.00;;;12.30;99.90;;;;;;5068171;28;20037;-80
2023/09/15 01:34:52;;;;;;;10.07;3.08;;;12.30;99.90;;;;;;5068329;28;20032;-80
2023/09/15 01:37:19;;;;;;;10.02;3.33;;;12.30;99.90;;;;;;5079682;28;20394;-80
2023/09/15 01:39:44;;;;;;;7.63;3.05;;;12.20;99.90;;;;;;5059845;28;20063;-80
2023/09/15 01:42:10;;;;;;;13.15;3.58;;;12.20;99.90;;;;;;5062046;28;20041;-80
2023/09/15 01:44:36;;;;;;;15.00;3.63;;;12.30;99.90;;;;;;5073259;28;20036;-80
2023/09/15 01:47:02;;;;;;;10.95;3.58;;;12.30;99.90;;;;;;5089594;28;20052;-79
2023/09/15 01:49:29;;;;;;;7.13;3.40;;;12.20;99.90;;;;;;5076725;28;20048;-80
2023/09/15 01:51:56;;;;;;;6.95;3.88;;;12.20;99.90;;;;;;5087739;28;20032;-80
2023/09/15 01:54:22;;;;;;;12.68;3.92;;;12.20;99.90;;;;;;5080700;28;20060;-81
2023/09/15 01:56:51;;;;;;;10.30;3.30;;;12.10;99.90;;;;;;5079701;28;20063;-79
2023/09/15 01:59:16;;;;;;;;;;;12.10;99.90;;;;;;5074914;28;20108;-81
2023/09/15 02:01:42;;;;;;;6.57;3.33;;;12.10;99.90;;;;;;5068332;28;19960;-80
2023/09/15 02:04:09;;;;;;;8.02;3.83;;;12.10;99.90;;;;;;5075139;28;20032;-79
2023/09/15 02:06:35;;;;;;;8.48;4.00;;;12.10;99.90;;;;;;5083151;28;20051;-79
2023/09/15 02:09:04;;;;;;;10.90;3.55;;;12.00;99.90;;;;;;5070752;28;20029;-80
2023/09/15 02:11:30;;;;;;;7.28;3.50;;;12.00;99.90;;;;;;5079930;28;20146;-80
2023/09/15 02:13:55;;;;;;;7.53;2.95;;;12.00;99.90;;;;;;5114671;28;20045;-81
2023/09/15 02:16:21;;;;;;;15.07;3.58;;;12.00;99.90;;;;;;5063884;28;20037;-81
2023/09/15 02:18:47;;;;;;;9.85;4.00;;;12.00;99.90;;;;;;5053062;28;20047;-79
2023/09/15 02:21:12;;;;;;;8.50;3.38;;;12.00;99.90;;;;;;5080333;28;20053;-81
2023/09/15 02:23:38;;;;;;;6.18;3.30;;;12.00;99.90;;;;;;5089192;28;20049;-80
2023/09/15 02:26:08;;;;;;;7.45;3.20;;;12.00;99.90;;;;;;5078985;28;20041;-80
2023/09/15 02:28:34;;;;;;;11.88;3.95;;;12.00;99.90;;;;;;5074206;28;20076;-80
2023/09/15 02:31:06;;;;;;;11.05;3.38;;;11.90;99.90;;;;;;5075625;28;21427;-79
2023/09/15 02:33:32;;;;;;;7.03;3.05;;;11.90;99.90;;;;;;5076770;28;20033;-80
2023/09/15 02:35:58;;;;;;;10.25;3.60;;;11.90;99.90;;;;;;5082286;28;20415;-81
2023/09/15 02:38:24;;;;;;;8.32;3.50;;;11.90;99.90;;;;;;5074341;28;20055;-79
2023/09/15 02:40:50;;;;;;;12.15;5.07;;;11.90;99.90;;;;;;5085254;28;20052;-80
2023/09/15 02:43:15;;;;;;;8.27;3.35;;;11.90;99.90;;;;;;5099509;28;20041;-80
2023/09/15 02:45:41;;;;;;;8.15;3.25;;;11.90;99.90;;;;;;5076264;28;20045;-80
2023/09/15 02:48:07;;;;;;;8.40;3.20;;;11.80;99.90;;;;;;5081106;28;20032;-80
2023/09/15 02:50:43;;;;;;;7.18;3.45;;;11.80;99.90;;;;;;5075748;28;20041;-80
2023/09/15 02:53:10;;;;;;;9.88;3.70;;;11.80;99.90;;;;;;5090233;28;20048;-80
2023/09/15 02:55:38;;;;;;;7.32;3.40;;;11.80;99.90;;;;;;5081995;28;20045;-81
2023/09/15 02:58:05;;;;;;;10.38;3.97;;;11.80;99.90;;;;;;5092705;28;20048;-79
2023/09/15 03:00:31;;;;;;;9.90;3.40;;;11.80;99.90;;;;;;5085341;28;20049;-82
2023/09/15 03:02:57;;;;;;;5.65;3.35;;;11.70;99.90;;;;;;5081026;28;20127;-81
2023/09/15 03:05:22;;;;;;;8.65;3.67;;;11.80;99.90;;;;;;5114419;28;20036;-81
2023/09/15 03:07:48;;;;;;;6.13;3.58;;;11.70;99.90;;;;;;5095664;28;20156;-80
2023/09/15 03:10:14;;;;;;;9.63;3.80;;;11.70;99.90;;;;;;5076598;28;20051;-80
2023/09/15 03:12:40;;;;;;;7.05;3.70;;;11.70;99.90;;;;;;5053270;28;20041;-80
2023/09/15 03:15:08;;;;;;;9.98;3.67;;;11.70;99.90;;;;;;5071757;28;20045;-80
2023/09/15 03:17:34;;;;;;;6.27;3.90;;;11.60;99.90;;;;;;5075213;28;20483;-80
2023/09/15 03:20:00;;;;;;;9.90;3.92;;;11.60;99.90;;;;;;5049947;28;20045;-80
2023/09/15 03:22:27;;;;;;;9.95;3.80;;;11.60;99.90;;;;;;5090677;28;20054;-80
2023/09/15 03:24:56;;;;;;;11.80;4.10;;;11.60;99.90;;;;;;5103240;28;20040;-80
2023/09/15 03:27:21;;;;;;;7.15;3.92;;;11.60;99.90;;;;;;5082885;28;20047;-80
2023/09/15 03:29:47;;;;;;;8.55;3.92;;;11.60;99.90;;;;;;5088234;28;20080;-80
2023/09/15 03:32:13;;;;;;;8.73;3.85;;;11.60;99.90;;;;;;5074166;28;20053;-80
2023/09/15 03:34:42;;;;;;;7.47;3.92;;;11.50;99.90;;;;;;5074298;28;20100;-80
2023/09/15 03:37:07;;;;;;;9.75;4.03;;;11.50;99.90;;;;;;5072472;28;20088;-81
2023/09/15 03:39:33;;;;;;;6.30;3.50;;;11.60;99.90;;;;;;5083623;28;20041;-80
2023/09/15 03:41:59;;;;;;;8.60;4.22;;;11.50;99.90;;;;;;5086451;28;20044;-80
2023/09/15 03:44:25;;;;;;;6.53;3.88;;;11.50;99.90;;;;;;5074536;28;20040;-80
2023/09/15 03:46:52;;;;;;;6.35;3.72;;;11.50;99.90;;;;;;5097813;28;20128;-80
2023/09/15 03:49:18;;;;;;;15.45;4.35;;;11.50;99.90;;;;;;5084883;28;20380;-80
2023/09/15 03:51:44;;;;;;;11.50;4.18;;;11.50;99.90;;;;;;5078229;28;20052;-80
2023/09/15 03:54:09;;;;;;;8.85;4.72;;;11.50;99.90;;;;;;5087327;28;20032;-79
2023/09/15 03:56:35;;;;;;;6.38;3.58;;;11.50;99.90;;;;;;5082173;28;20036;-80
2023/09/15 03:59:01;;;;;;;13.60;3.70;;;11.50;99.90;;;;;;5100210;28;20075;-80
2023/09/15 04:01:27;;;;;;;9.40;3.80;;;11.50;99.90;;;;;;5090847;28;20495;-79
2023/09/15 04:03:52;;;;;;;8.43;4.32;;;11.40;99.90;;;;;;5099290;28;20036;-82
2023/09/15 04:06:18;;;;;;;9.07;4.70;;;11.40;99.90;;;;;;5063863;28;20070;-80
2023/09/15 04:08:46;;;;;;;13.02;4.72;;;11.40;99.90;;;;;;5085342;28;20025;-80
2023/09/15 04:11:12;;;;;;;7.72;3.92;;;11.40;99.90;;;;;;5087372;28;20088;-79
2023/09/15 04:13:37;;;;;;;9.02;4.78;;;11.40;99.90;;;;;;5105126;28;20126;-80
2023/09/15 04:16:04;;;;;;;15.75;4.43;;;11.40;99.90;;;;;;5078395;28;20049;-80
2023/09/15 04:18:31;;;;;;;9.60;4.40;;;11.40;99.90;;;;;;5088827;28;20053;-81
2023/09/15 04:20:57;;;;;;;9.45;4.03;;;11.40;99.90;;;;;;5090120;28;20071;-81
2023/09/15 04:23:23;;;;;;;7.95;4.22;;;11.40;99.90;;;;;;5091964;28;20044;-80
2023/09/15 04:25:49;;;;;;;10.68;4.65;;;11.30;99.90;;;;;;5072285;28;20075;-80
2023/09/15 04:28:15;;;;;;;8.65;4.03;;;11.30;99.90;;;;;;5090344;28;20119;-79
2023/09/15 04:30:40;;;;;;;10.05;4.78;;;11.30;99.90;;;;;;5091551;28;20567;-79
2023/09/15 04:33:06;;;;;;;10.13;4.60;;;11.30;99.90;;;;;;5096771;28;20040;-83
2023/09/15 04:35:32;;;;;;;13.15;7.00;;;11.30;99.90;;;;;;5086657;28;20056;-79
2023/09/15 04:37:58;;;;;;;8.02;4.80;;;11.30;99.90;;;;;;5081569;28;20036;-79
2023/09/15 04:40:24;;;;;;;13.73;5.75;;;11.30;99.90;;;;;;5098770;28;20058;-81
2023/09/15 04:42:50;;;;;;;11.48;6.18;;;11.30;99.90;;;;;;5091333;28;20402;-80
2023/09/15 04:45:16;;;;;;;16.00;5.60;;;11.30;99.90;;;;;;5065595;28;20041;-79
2023/09/15 04:47:41;;;;;;;8.77;5.00;;;11.30;99.90;;;;;;5077660;28;20048;-81
2023/09/15 04:50:08;;;;;;;11.25;4.43;;;11.30;99.90;;;;;;5087624;28;20544;-80
2023/09/15 04:52:35;;;;;;;9.82;4.82;;;11.20;99.90;;;;;;5092981;28;20044;-79
2023/09/15 04:55:01;;;;;;;11.82;4.88;;;11.20;99.90;;;;;;5074490;28;20044;-81
2023/09/15 04:57:27;;;;;;;9.50;5.15;;;11.20;99.90;;;;;;5093220;28;20054;-80
2023/09/15 04:59:53;;;;;;;12.55;5.43;;;11.20;99.90;;;;;;5096278;28;20049;-80
2023/09/15 05:02:22;;;;;;;8.02;4.75;;;11.20;99.90;;;;;;5096635;28;20419;-80
2023/09/15 05:04:48;;;;;;;12.32;4.75;;;11.20;99.90;;;;;;5081183;28;20051;-81
2023/09/15 05:07:15;;;;;;;7.45;5.00;;;11.20;99.90;;;;;;5083283;28;20037;-80
2023/09/15 05:09:40;;;;;;;11.18;5.60;;;11.20;99.90;;;;;;5079532;28;20482;-80
2023/09/15 05:12:06;;;;;;;12.80;5.25;;;11.10;99.90;;;;;;5075645;28;20041;-81
2023/09/15 05:14:32;;;;;;;11.18;5.05;;;11.40;99.90;;;;;;5106247;28;20068;-80
2023/09/15 05:16:58;;;;;;;13.38;5.45;;;11.10;99.90;;;;;;5087419;28;20033;-81
2023/09/15 05:19:23;;;;;;;10.23;5.65;;;11.10;99.90;;;;;;5084798;28;20061;-81
2023/09/15 05:21:49;;;;;;;14.45;5.50;;;11.10;99.90;;;;;;5088145;28;20064;-81
2023/09/15 05:24:15;;;;;;;11.90;5.72;;;11.10;99.90;;;;;;5082590;28;20061;-79
2023/09/15 05:26:40;;;;;;;14.05;6.07;;;11.20;99.90;;;;;;5089271;28;20044;-80
2023/09/15 05:29:06;;;;;;;10.80;6.13;;;11.10;99.90;;;;;;5067916;28;20047;-81
2023/09/15 05:31:32;;;;;;;7.72;5.30;;;11.10;99.90;;;;;;5080238;28;20032;-80
2023/09/15 05:33:57;;;;;;;7.95;5.85;;;11.10;99.90;;;;;;5082165;28;20065;-81
2023/09/15 05:36:24;;;;;;;10.70;6.35;;;11.10;99.90;;;;;;5081310;28;20037;-79
2023/09/15 05:38:52;;;;;;;17.88;7.00;;;11.10;99.90;;;;;;5088152;28;20032;-80
2023/09/15 05:41:18;;;;;;;11.07;6.03;;;11.10;99.90;;;;;;5070277;28;20068;-80
2023/09/15 05:43:43;;;;;;;9.85;5.97;;;11.10;99.90;;;;;;5113192;28;20037;-80
2023/09/15 05:46:09;;;;;;;12.18;5.90;;;11.10;99.90;;;;;;5075087;28;20771;-80
2023/09/15 05:48:38;;;;;;;10.82;6.10;;;11.10;99.90;;;;;;5071217;28;20048;-80
2023/09/15 05:51:06;;;;;;;15.15;6.82;;;11.10;99.90;;;;;;5074828;28;20079;-81
2023/09/15 05:53:33;;;;;;;11.80;6.60;;;11.20;99.90;;;;;;5084333;28;20048;-80
2023/09/15 05:55:58;;;;;;;17.63;6.75;;;11.10;99.90;;;;;;5073852;28;20033;-80
2023/09/15 05:58:24;;;;;;;14.43;5.90;;;11.20;99.90;;;;;;5084110;28;20033;-80
2023/09/15 06:00:54;;;;;;;14.43;6.07;;;11.20;99.90;;;;;;5083178;28;20042;-79
2023/09/15 06:03:23;;;;;;;10.50;5.65;;;11.20;99.90;;;;;;5111849;27;20096;-79
2023/09/15 06:05:49;;;;;;;12.98;6.57;;;11.30;99.90;;;;;;5082407;28;20025;-81
2023/09/15 06:08:14;;;;;;;8.57;5.93;;;11.20;99.90;;;;;;5077421;28;20070;-80
2023/09/15 06:10:40;;;;;;;12.65;6.82;;;11.30;99.90;;;;;;5090066;28;20062;-79
2023/09/15 06:13:06;;;;;;;12.07;7.43;;;11.40;99.90;;;;;;5088214;28;20041;-81
2023/09/15 06:15:34;;;;;;;12.68;6.75;;;11.40;99.90;;;;;;5062948;28;20075;-79
2023/09/15 06:18:01;;;;;;;14.65;6.90;;;11.40;99.90;;;;;;5096414;28;20096;-80
2023/09/15 06:20:30;;;;;;;13.82;6.47;;;11.50;99.90;;;;;;5091496;28;20036;-82
2023/09/15 06:22:56;;;;;;;13.43;6.88;;;11.50;99.90;;;;;;5073501;28;20070;-80
2023/09/15 06:25:22;;;;;;;12.52;6.32;;;11.60;99.90;;;;;;5104857;28;20081;-79
2023/09/15 06:27:49;;;;;;;12.95;6.43;;;11.70;99.90;;;;;;5072514;28;20041;-80
2023/09/15 06:30:15;;;;;;;12.07;6.75;;;11.80;99.90;;;;;;5079441;28;20037;-79
2023/09/15 06:32:41;;;;;;;15.50;7.13;;;11.90;99.90;;;;;;5085051;28;20053;-80
2023/09/15 06:35:10;;;;;;;15.80;7.07;;;12.00;99.90;;;;;;5080236;28;20079;-80
2023/09/15 06:37:36;;;;;;;17.15;6.78;;;12.00;99.90;;;;;;5060326;28;20052;-80
2023/09/15 06:40:03;;;;;;;11.88;6.50;;;12.20;99.90;;;;;;5111564;28;20036;-79
2023/09/15 06:42:28;;;;;;;11.40;6.82;;;12.30;99.90;;;;;;5076775;28;20060;-80
2023/09/15 06:44:55;;;;;;;11.55;6.45;;;12.40;99.90;;;;;;5060728;28;20045;-81
2023/09/15 06:47:22;;;;;;;13.05;5.78;;;12.60;99.90;;;;;;5074400;28;20063;-81
2023/09/15 06:49:48;;;;;;;12.55;6.60;;;13.10;99.90;;;;;;5083817;28;20086;-81
2023/09/15 06:52:13;;;;;;;16.88;6.63;;;13.40;99.90;;;;;;5076155;28;20041;-81
2023/09/15 06:54:39;;;;;;;16.17;6.13;;;13.90;99.90;;;;;;5083485;28;20040;-81
2023/09/15 06:57:05;;;;;;;8.80;5.88;;;14.20;99.90;;;;;;5073461;28;20462;-80
2023/09/15 06:59:31;;;;;;;10.15;5.90;;;14.50;99.90;;;;;;5075743;28;20051;-81
2023/09/15 07:01:59;;;;;;;10.25;6.03;;;14.70;99.90;;;;;;5076602;28;20509;-79
2023/09/15 07:04:27;;;;;;;;;;;14.70;99.90;;;;;;5074272;28;20487;-79
2023/09/15 07:06:54;;;;;;;10.45;5.32;;;14.60;99.90;;;;;;5078031;28;19925;-80
2023/09/15 07:09:20;;;;;;;13.98;6.10;;;14.70;99.90;;;;;;5066161;28;20487;-80
2023/09/15 07:11:46;;;;;;;12.52;5.57;;;14.90;99.90;;;;;;5098126;28;20053;-79
2023/09/15 07:14:14;;;;;;;10.63;5.93;;;15.10;99.90;;;;;;5077258;28;20055;-80
2023/09/15 07:16:41;;;;;;;10.00;5.90;;;15.10;99.90;;;;;;5063811;28;20037;-79
2023/09/15 07:19:06;;;;;;;12.20;5.93;;;15.00;99.90;;;;;;5064424;28;20060;-81
2023/09/15 07:21:32;;;;;;;18.30;6.25;;;14.90;99.90;;;;;;5089633;28;20075;-79
2023/09/15 07:23:59;;;;;;;11.75;5.95;;;14.80;99.90;;;;;;5087936;28;20079;-80
2023/09/15 07:26:26;;;;;;;11.27;5.80;;;14.80;99.90;;;;;;5075251;28;20048;-79
2023/09/15 07:28:53;;;;;;;10.63;5.63;;;14.90;99.90;;;;;;5110498;28;20101;-79
2023/09/15 07:31:20;;;;;;;14.38;5.90;;;14.90;99.90;;;;;;5082151;28;20096;-80
2023/09/15 07:33:46;;;;;;;14.43;6.57;;;15.00;99.90;;;;;;5086428;28;20043;-79
2023/09/15 07:36:12;;;;;;;11.30;7.10;;;15.00;99.90;;;;;;5082528;28;20044;-81
2023/09/15 07:38:38;;;;;;;16.23;9.50;;;15.00;99.90;;;;;;5080110;28;20047;-81
2023/09/15 07:41:04;;;;;;;18.60;7.70;;;15.10;99.90;;;;;;5081261;28;20036;-80
2023/09/15 07:43:29;;;;;;;13.02;7.13;;;15.20;99.90;;;;;;5077322;28;20041;-80
2023/09/15 07:45:55;;;;;;;15.55;7.28;;;15.20;99.90;;;;;;5072705;28;20041;-81
2023/09/15 07:48:22;;;;;;;14.52;6.38;;;15.40;99.90;;;;;;5089187;28;20082;-80
2023/09/15 07:50:48;;;;;;;14.02;6.60;;;15.40;99.90;;;;;;5068326;28;20059;-80
2023/09/15 07:53:14;;;;;;;11.45;6.03;;;15.60;99.90;;;;;;5082468;28;20044;-80
2023/09/15 07:55:39;;;;;;;15.40;6.03;;;15.70;99.90;;;;;;5070577;28;20105;-80
2023/09/15 07:58:05;;;;;;;13.18;6.20;;;15.80;99.90;;;;;;5071360;28;20127;-79
2023/09/15 08:00:31;;;;;;;12.35;5.72;;;15.90;99.90;;;;;;5076807;28;20041;-80
2023/09/15 08:02:57;;;;;;;12.55;6.03;;;16.10;99.90;;;;;;5087274;28;20044;-81
2023/09/15 08:05:23;;;;;;;10.52;5.50;;;16.20;99.90;;;;;;5083370;28;20044;-81
2023/09/15 08:07:49;;;;;;;13.27;6.05;;;16.30;99.90;;;;;;5072264;28;20049;-80
2023/09/15 08:10:17;;;;;;;10.48;5.85;;;16.50;99.90;;;;;;5061454;28;20553;-80
2023/09/15 08:12:43;;;;;;;15.40;6.30;;;16.60;99.90;;;;;;5068543;28;20100;-80
2023/09/15 08:15:09;;;;;;;10.68;5.93;;;16.60;99.90;;;;;;5091243;28;20077;-80
2023/09/15 08:17:38;;;;;;;13.27;6.45;;;16.70;99.90;;;;;;5067162;28;20045;-81
2023/09/15 08:20:04;;;;;;;9.32;4.63;;;16.90;99.90;;;;;;5065927;28;20199;-81
2023/09/15 08:22:32;;;;;;;10.38;4.53;;;17.10;99.90;;;;;;5059395;28;20057;-79
2023/09/15 08:25:01;;;;;;;11.52;4.93;;;17.30;99.90;;;;;;5093792;28;20040;-82
2023/09/15 08:27:26;;;;;;;8.82;4.10;;;17.40;99.90;;;;;;5062529;28;20044;-79
2023/09/15 08:29:52;;;;;;;11.27;4.20;;;17.60;99.90;;;;;;5081786;28;20398;-80
2023/09/15 08:32:18;;;;;;;8.40;3.75;;;17.70;99.90;;;;;;5064478;28;20044;-80
2023/09/15 08:34:46;;;;;;;10.98;3.60;;;17.80;99.90;;;;;;5083700;28;20072;-80
2023/09/15 08:37:12;;;;;;;9.45;3.45;;;17.90;99.90;;;;;;5078334;28;20040;-80
2023/09/15 08:39:38;;;;;;;9.23;4.03;;;18.10;99.90;;;;;;5076110;28;20036;-81
2023/09/15 08:42:09;;;;;;;7.43;3.92;;;18.10;99.90;;;;;;5082326;28;20561;-80
2023/09/15 08:44:37;;;;;;;6.18;3.22;;;18.20;99.90;;;;;;5082026;28;20044;-81
2023/09/15 08:47:03;;;;;;;;;;;18.30;99.90;;;;;;5065069;28;20044;-79
2023/09/15 08:49:30;;;;;;;7.57;3.10;;;18.20;99.90;;;;;;5067856;28;19960;-81
2023/09/15 08:51:57;;;;;;;13.35;3.80;;;18.40;99.90;;;;;;5075788;28;20041;-82
2023/09/15 08:54:23;;;;;;;9.23;3.72;;;18.40;99.90;;;;;;5079823;28;20454;-81
2023/09/15 08:56:49;;;;;;;7.05;3.25;;;18.50;99.90;;;;;;5081759;28;20498;-80
2023/09/15 08:59:16;;;;;;;7.95;3.13;;;18.50;99.90;;;;;;5077151;28;20055;-80
2023/09/15 09:01:42;;;;;;;7.97;3.38;;;18.60;99.90;;;;;;5079719;28;20094;-81
2023/09/15 09:04:08;;;;;;;10.30;3.60;;;18.70;99.90;;;;;;5083059;28;20047;-81
2023/09/15 09:06:37;;;;;;;9.30;3.55;;;18.70;99.90;;;;;;5084997;28;20076;-79
2023/09/15 09:09:04;;;;;;;11.43;3.35;;;18.80;99.90;;;;;;5066913;28;20060;-81
2023/09/15 09:11:30;;;;;;;15.82;3.72;;;19.00;99.90;;;;;;5077560;28;20041;-81
2023/09/15 09:13:56;;;;;;;9.68;3.67;;;19.10;99.90;;;;;;5080338;28;20032;-81
2023/09/15 09:16:22;;;;;;;8.75;3.45;;;19.20;99.90;;;;;;5086699;28;20091;-81
2023/09/15 09:19:00;;;;;;;8.52;3.60;;;19.40;99.90;;;;;;5087720;28;20040;-80
2023/09/15 09:21:27;;;;;;;10.57;3.13;;;19.50;99.90;;;;;;5099374;28;20085;-82
2023/09/15 09:23:54;;;;;;;10.15;3.40;;;19.60;99.90;;;;;;5108026;28;20293;-80
2023/09/15 09:26:23;;;;;;;7.57;2.90;;;19.70;99.90;;;;;;5109011;28;20051;-80
2023/09/15 09:28:54;;;;;;;7.25;3.05;;;19.80;99.90;;;;;;5078165;28;20043;-81
2023/09/15 09:31:24;;;;;;;7.10;3.00;;;19.90;99.90;;;;;;5082696;28;20033;-80
2023/09/15 09:33:50;;;;;;;8.02;2.75;;;19.80;99.90;;;;;;5067780;28;20048;-79
2023/09/15 09:36:18;;;;;;;9.00;2.70;;;19.80;99.90;;;;;;5081936;28;20040;-80
2023/09/15 09:38:46;;;;;;;5.68;2.78;;;19.80;99.90;;;;;;5085521;28;20046;-79
2023/09/15 09:41:13;;;;;;;8.13;2.92;;;19.90;99.90;;;;;;5087288;28;20041;-80
2023/09/15 09:43:40;;;;;;;7.65;3.20;;;20.00;99.90;;;;;;5085979;28;20101;-81
2023/09/15 09:46:06;;;;;;;11.37;3.13;;;20.10;99.90;;;;;;5121960;28;20071;-80
2023/09/15 09:48:36;;;;;;;6.75;2.95;;;20.20;99.90;;;;;;5090348;28;20326;-79
2023/09/15 09:51:03;;;;;;;6.60;2.50;;;20.30;99.90;;;;;;5071332;28;20090;-80
2023/09/15 09:53:33;;;;;;;8.65;3.13;;;20.40;99.90;;;;;;5084821;28;20078;-80
2023/09/15 09:56:04;;;;;;;12.48;3.55;;;20.50;99.90;;;;;;5090560;28;20046;-80
2023/09/15 09:58:35;;;;;;;11.77;3.67;;;20.60;99.80;;;;;;5086005;28;20041;-79
2023/09/15 10:01:00;;;;;;;11.40;3.33;;;20.70;99.30;;;;;;5085888;28;20399;-81
2023/09/15 10:03:26;;;;;;;10.60;3.22;;;20.90;99.90;;;;;;5104347;28;20040;-79
2023/09/15 10:05:52;;;;;;;7.55;3.80;;;21.10;99.90;;;;;;5100992;28;20050;-80
2023/09/15 10:08:18;;;;;;;11.07;3.90;;;21.30;99.00;;;;;;5068511;28;20047;-80
2023/09/15 10:10:46;;;;;;;8.02;3.38;;;21.40;97.70;;;;;;5073969;28;20041;-80
2023/09/15 10:13:16;;;;;;;8.55;3.40;;;21.30;97.00;;;;;;5077745;28;20049;-79
2023/09/15 10:15:42;;;;;;;13.27;4.10;;;21.70;97.90;;;;;;5076111;28;20048;-81
2023/09/15 10:18:15;;;;;;;7.60;3.80;;;21.90;98.40;;;;;;5109475;28;20123;-79
2023/09/15 10:20:45;;;;;;;12.57;3.97;;;22.10;97.00;;;;;;5105692;28;20063;-78
2023/09/15 10:23:13;;;;;;;9.63;4.10;;;22.20;96.80;;;;;;5081670;28;20037;-80
2023/09/15 10:25:51;;;;;;;9.13;4.05;;;22.40;97.50;;;;;;5083838;28;20066;-80
2023/09/15 10:28:17;;;;;;;7.65;4.13;;;22.60;96.20;;;;;;5067515;28;20036;-79
2023/09/15 10:30:44;;;;;;;6.68;3.70;;;22.80;96.80;;;;;;5076320;28;20057;-80
2023/09/15 10:33:10;;;;;;;7.85;3.80;;;23.10;96.70;;;;;;5093763;28;20044;-79
2023/09/15 10:35:45;;;;;;;26.73;4.65;;;23.30;95.80;;;;;;5061170;28;20120;-81
2023/09/15 10:38:13;;;;;;;7.55;3.88;;;23.40;93.90;;;;;;5073341;28;20111;-80
2023/09/15 10:40:51;;;;;;;6.47;3.92;;;23.50;93.50;;;;;;5078236;28;20080;-80
2023/09/15 10:43:17;;;;;;;6.90;3.25;;;23.60;92.50;;;;;;5078075;28;20040;-79
2023/09/15 10:46:06;;;;;;;9.10;3.47;;;23.60;93.70;;;;;;5081580;28;20477;-79
2023/09/15 10:48:50;;;;;;;6.72;3.20;;;23.60;91.90;;;;;;5078348;28;20037;-80
2023/09/15 10:51:18;;;;;;;5.65;2.70;;;23.70;92.70;;;;;;5047747;28;20041;-79
2023/09/15 10:53:49;;;;;;;9.00;3.08;;;23.90;93.30;;;;;;5082806;28;20037;-80
2023/09/15 10:56:19;;;;;;;9.45;3.08;;;24.00;92.30;;;;;;5078810;28;20482;-79
2023/09/15 10:58:48;;;;;;;8.18;2.67;;;24.00;92.20;;;;;;5074390;28;20040;-79
2023/09/15 11:01:18;;;;;;;6.90;2.75;;;24.10;92.20;;;;;;5080864;28;20052;-80
2023/09/15 11:03:47;;;;;;;7.82;3.08;;;24.30;92.00;;;;;;5090794;28;20048;-80
2023/09/15 11:06:15;;;;;;;7.53;2.88;;;24.30;91.90;;;;;;5068098;28;20316;-79
2023/09/15 11:08:41;;;;;;;9.52;2.72;;;24.50;91.50;;;;;;5077491;28;20041;-80
2023/09/15 11:11:09;;;;;;;6.68;2.75;;;24.60;91.10;;;;;;5063424;28;20037;-79
2023/09/15 11:13:36;;;;;;;8.32;2.88;;;24.80;91.10;;;;;;5064295;28;20084;-80
2023/09/15 11:16:02;;;;;;;5.90;2.90;;;25.10;91.20;;;;;;5107973;28;20044;-80
2023/09/15 11:18:31;;;;;;;4.47;2.35;;;25.10;90.40;;;;;;5070169;28;20041;-80
2023/09/15 11:20:58;;;;;;;6.90;2.50;;;25.40;90.10;;;;;;5068833;28;20135;-79
2023/09/15 11:23:26;;;;;;;9.48;2.88;;;25.20;88.90;;;;;;5070369;28;20491;-78
2023/09/15 11:26:03;;;;;;;5.72;2.88;;;25.10;88.60;;;;;;5073400;28;20047;-79
2023/09/15 11:28:33;;;;;;;7.00;3.00;;;25.20;86.70;;;;;;5084937;28;20540;-80
2023/09/15 11:31:02;;;;;;;5.13;2.80;;;24.90;85.70;;;;;;5070293;28;20049;-79
2023/09/15 11:33:29;;;;;;;7.57;2.88;;;24.90;88.80;;;;;;5071590;28;20079;-78
2023/09/15 11:35:56;;;;;;;6.35;2.53;;;25.00;89.40;;;;;;5077379;28;20044;-78
2023/09/15 11:38:23;;;;;;;7.23;2.33;;;25.20;89.70;;;;;;5076623;28;20115;-79
2023/09/15 11:40:53;;;;;;;4.60;2.13;;;25.40;89.80;;;;;;5067495;28;20287;-79
2023/09/15 11:43:23;;;;;;;7.13;2.63;;;25.50;89.30;;;;;;5075385;28;20041;-79
2023/09/15 11:45:51;;;;;;;5.18;2.60;;;25.50;88.20;;;;;;5078838;28;20049;-80
2023/09/15 11:48:18;;;;;;;7.20;2.78;;;25.20;86.60;;;;;;5054461;28;20044;-79
2023/09/15 11:50:46;;;;;;;6.10;2.42;;;25.00;87.30;;;;;;5065403;28;20518;-79
2023/09/15 11:53:23;;;;;;;6.25;2.60;;;24.90;89.00;;;;;;5068924;28;20056;-81
2023/09/15 11:55:52;;;;;;;7.88;2.72;;;24.90;89.00;;;;;;5066169;28;20045;-79
2023/09/15 11:58:21;;;;;;;6.13;2.42;;;25.10;90.00;;;;;;5080366;28;20040;-80
2023/09/15 12:00:48;;;;;;;7.25;2.75;;;25.20;89.70;;;;;;5086949;28;20041;-78
2023/09/15 12:03:14;;;;;;;8.48;3.08;;;25.20;87.30;;;;;;5070794;28;20041;-78
2023/09/15 12:05:40;;;;;;;6.03;2.75;;;25.00;87.90;;;;;;5083120;28;20131;-81
2023/09/15 12:08:06;;;;;;;6.30;2.58;;;24.90;88.50;;;;;;5081591;28;20045;-79
2023/09/15 12:10:32;;;;;;;8.43;2.65;;;24.60;88.60;;;;;;5073821;28;20484;-77
2023/09/15 12:12:59;;;;;;;9.73;2.63;;;24.70;90.10;;;;;;5064308;28;20107;-78
2023/09/15 12:15:26;;;;;;;5.38;2.40;;;24.90;89.90;;;;;;5059481;28;20499;-80
2023/09/15 12:17:52;;;;;;;8.23;3.03;;;25.20;88.90;;;;;;5060552;28;20113;-79
2023/09/15 12:20:23;;;;;;;5.35;2.38;;;25.30;88.70;;;;;;5068504;28;20052;-79
2023/09/15 12:22:49;;;;;;;8.50;2.63;;;25.40;87.50;;;;;;5104931;28;20048;-80
2023/09/15 12:25:16;;;;;;;8.20;2.47;;;25.60;86.40;;;;;;5092003;28;20095;-78
2023/09/15 12:27:42;;;;;;;;;;;25.50;87.30;;;;;;5052611;28;20060;-79
2023/09/15 12:30:09;;;;;;;7.38;2.65;;;25.40;85.60;;;;;;5062653;28;19921;-79
2023/09/15 12:32:35;;;;;;;;;;;25.40;86.60;;;;;;5077559;28;20040;-82
2023/09/15 12:35:07;;;;;;;9.27;2.58;;;25.30;86.00;;;;;;5099493;28;20336;-80
2023/09/15 12:37:34;;;;;;;8.77;3.30;;;25.30;86.70;;;;;;5087273;28;20104;-81
2023/09/15 12:40:04;;;;;;;8.85;2.83;;;25.40;87.30;;;;;;5086596;28;20044;-80
2023/09/15 12:42:29;;;;;;;6.68;2.63;;;25.40;87.10;;;;;;5078674;28;20048;-78